sensor_id;sensor_type;location;lat;lon;timestamp;P1;durP1;ratioP1;P2;durP2;ratioP2
66609;SDS011;53468;48.276;14.416;2023-12-07T08:38:52;25.05;;;14.88;;
66609;SDS011;53468;48.276;14.416;2023-12-07T08:44:07;32.55;;;15.82;;
66609;SDS011;53468;48.276;14.416;2023-12-07T08:50:04;28.45;;;15.48;;
66609;SDS011;53468;48.276;14.416;2023-12-07T11:20:31;28.25;;;16.92;;
66609;SDS011;53468;48.276;14.416;2023-12-07T11:26:03;25.70;;;15.18;;
66609;SDS011;53468;48.276;14.416;2023-12-07T11:31:16;26.38;;;15.32;;
66609;SDS011;53468;48.276;14.416;2023-12-07T11:36:41;30.38;;;16.45;;
66609;SDS011;53468;48.276;14.416;2023-12-07T11:41:50;30.13;;;17.30;;
66609;SDS011;53468;48.276;14.416;2023-12-07T11:59:12;31.92;;;18.17;;
66609;SDS011;53468;48.276;14.416;2023-12-07T12:11:03;28.42;;;16.70;;
66609;SDS011;53468;48.276;14.416;2023-12-07T12:16:19;28.00;;;16.27;;
66609;SDS011;53468;48.276;14.416;2023-12-07T12:22:25;25.23;;;15.98;;
66609;SDS011;53468;48.276;14.416;2023-12-07T12:28:28;32.55;;;18.30;;
66609;SDS011;53468;48.276;14.416;2023-12-07T12:34:37;35.72;;;19.00;;
66609;SDS011;53468;48.276;14.416;2023-12-07T12:40:20;39.20;;;19.85;;
66609;SDS011;53468;48.276;14.416;2023-12-07T13:41:24;29.10;;;14.95;;
66609;SDS011;53468;48.276;14.416;2023-12-07T13:52:30;34.88;;;17.20;;
66609;SDS011;53468;48.276;14.416;2023-12-07T14:10:00;35.22;;;18.27;;
66609;SDS011;53468;48.276;14.416;2023-12-07T14:16:04;32.88;;;17.50;;
66609;SDS011;53468;48.276;14.416;2023-12-07T14:32:50;28.88;;;16.45;;
66609;SDS011;53468;48.276;14.416;2023-12-07T14:38:25;32.60;;;16.23;;
66609;SDS011;53468;48.276;14.416;2023-12-07T14:43:47;28.50;;;16.42;;
66609;SDS011;53468;48.276;14.416;2023-12-07T15:50:42;27.15;;;14.82;;
66609;SDS011;53468;48.276;14.416;2023-12-07T15:56:39;28.15;;;15.10;;
66609;SDS011;53468;48.276;14.416;2023-12-07T17:14:09;37.35;;;18.42;;
66609;SDS011;53468;48.276;14.416;2023-12-07T17:19:13;37.95;;;18.27;;
66609;SDS011;53468;48.276;14.416;2023-12-07T17:24:26;39.83;;;20.25;;
66609;SDS011;53468;48.276;14.416;2023-12-07T17:29:28;39.40;;;19.13;;
66609;SDS011;53468;48.276;14.416;2023-12-07T17:34:33;39.63;;;20.17;;
66609;SDS011;53468;48.276;14.416;2023-12-07T17:39:41;36.60;;;20.55;;
66609;SDS011;53468;48.276;14.416;2023-12-07T17:45:21;37.85;;;20.20;;
66609;SDS011;53468;48.276;14.416;2023-12-07T17:50:51;38.45;;;19.25;;
66609;SDS011;53468;48.276;14.416;2023-12-07T17:56:12;36.13;;;20.33;;
66609;SDS011;53468;48.276;14.416;2023-12-07T18:01:48;36.05;;;19.85;;
66609;SDS011;53468;48.276;14.416;2023-12-07T18:07:42;35.70;;;19.00;;
66609;SDS011;53468;48.276;14.416;2023-12-07T18:13:13;33.20;;;17.15;;
66609;SDS011;53468;48.276;14.416;2023-12-07T18:18:47;37.80;;;18.40;;
66609;SDS011;53468;48.276;14.416;2023-12-07T18:24:28;46.72;;;20.45;;
66609;SDS011;53468;48.276;14.416;2023-12-07T18:30:20;39.83;;;16.75;;
66609;SDS011;53468;48.276;14.416;2023-12-07T18:36:11;35.88;;;18.23;;
66609;SDS011;53468;48.276;14.416;2023-12-07T18:41:48;35.50;;;17.77;;
66609;SDS011;53468;48.276;14.416;2023-12-07T18:53:01;39.85;;;16.70;;
66609;SDS011;53468;48.276;14.416;2023-12-07T18:58:10;36.60;;;17.13;;
66609;SDS011;53468;48.276;14.416;2023-12-07T19:03:21;30.38;;;17.05;;
66609;SDS011;53468;48.276;14.416;2023-12-07T19:09:39;31.40;;;16.70;;
66609;SDS011;53468;48.276;14.416;2023-12-07T19:20:20;30.05;;;14.25;;
66609;SDS011;53468;48.276;14.416;2023-12-07T19:25:28;32.63;;;15.45;;
66609;SDS011;53468;48.276;14.416;2023-12-07T19:30:53;31.02;;;16.00;;
66609;SDS011;53468;48.276;14.416;2023-12-07T19:36:11;29.92;;;14.77;;
66609;SDS011;53468;48.276;14.416;2023-12-07T19:41:19;25.33;;;13.80;;
66609;SDS011;53468;48.276;14.416;2023-12-07T19:46:34;27.85;;;13.70;;
66609;SDS011;53468;48.276;14.416;2023-12-07T19:52:00;29.63;;;14.63;;
66609;SDS011;53468;48.276;14.416;2023-12-07T19:57:17;27.83;;;13.43;;
66609;SDS011;53468;48.276;14.416;2023-12-07T20:03:01;25.65;;;14.90;;
66609;SDS011;53468;48.276;14.416;2023-12-07T20:08:26;28.95;;;13.68;;
66609;SDS011;53468;48.276;14.416;2023-12-07T20:13:43;28.67;;;14.18;;
66609;SDS011;53468;48.276;14.416;2023-12-07T20:19:46;29.40;;;13.77;;
66609;SDS011;53468;48.276;14.416;2023-12-07T20:25:37;26.42;;;11.93;;
66609;SDS011;53468;48.276;14.416;2023-12-07T20:31:37;24.88;;;14.35;;
66609;SDS011;53468;48.276;14.416;2023-12-07T20:37:03;25.17;;;13.07;;
66609;SDS011;53468;48.276;14.416;2023-12-07T20:42:20;24.45;;;13.88;;
66609;SDS011;53468;48.276;14.416;2023-12-07T20:59:39;27.15;;;14.40;;
66609;SDS011;53468;48.276;14.416;2023-12-07T21:37:19;22.77;;;9.80;;
66609;SDS011;53468;48.276;14.416;2023-12-07T21:43:18;14.38;;;7.65;;
66609;SDS011;53468;48.276;14.416;2023-12-07T21:48:24;19.10;;;9.15;;
66609;SDS011;53468;48.276;14.416;2023-12-07T22:11:07;11.85;;;7.00;;
66609;SDS011;53468;48.276;14.416;2023-12-07T22:16:13;14.23;;;6.72;;
66609;SDS011;53468;48.276;14.416;2023-12-07T22:21:46;14.02;;;7.45;;
66609;SDS011;53468;48.276;14.416;2023-12-07T22:26:56;18.88;;;8.80;;
66609;SDS011;53468;48.276;14.416;2023-12-07T22:32:06;17.60;;;8.45;;
66609;SDS011;53468;48.276;14.416;2023-12-07T22:37:12;14.70;;;8.00;;
66609;SDS011;53468;48.276;14.416;2023-12-07T22:42:58;14.88;;;7.70;;
66609;SDS011;53468;48.276;14.416;2023-12-07T22:49:01;12.32;;;6.60;;
66609;SDS011;53468;48.276;14.416;2023-12-07T22:54:24;11.50;;;6.47;;
66609;SDS011;53468;48.276;14.416;2023-12-07T23:30:19;17.70;;;10.20;;
66609;SDS011;53468;48.276;14.416;2023-12-07T23:35:27;20.73;;;8.70;;
